Time;durP1;ratioP1;P1;durP2;ratioP2;P2;SDS_P1;SDS_P2;PMS_P1;PMS_P2;Temp;Humidity;BMP_temperature;BMP_pressure;BME280_temperature;BME280_humidity;BME280_pressure;Samples;Min_cycle;Max_cycle;Signal;HPM_P1;HPM_P2
2023/07/23 00:01:48;;;;;;;19.88;17.80;;;14.70;99.90;;;;;;5033594;28;20118;-71
2023/07/23 00:04:14;;;;;;;19.75;17.85;;;14.70;99.90;;;;;;5033622;28;20047;-71
2023/07/23 00:06:41;;;;;;;18.83;17.13;;;14.70;99.90;;;;;;5018067;28;20041;-71
2023/07/23 00:09:09;;;;;;;19.45;17.65;;;14.60;99.90;;;;;;5035779;28;20504;-71
2023/07/23 00:11:36;;;;;;;19.92;17.90;;;14.60;99.90;;;;;;5035795;28;20041;-71
2023/07/23 00:14:02;;;;;;;20.00;17.90;;;14.60;99.90;;;;;;5026589;28;20103;-71
2023/07/23 00:16:29;;;;;;;21.85;19.40;;;14.60;99.90;;;;;;5041290;28;20044;-71
2023/07/23 00:18:56;;;;;;;19.58;17.67;;;14.60;99.90;;;;;;5031863;28;20041;-71
2023/07/23 00:21:23;;;;;;;19.05;17.35;;;14.50;99.90;;;;;;5034920;28;20044;-71
2023/07/23 00:23:51;;;;;;;18.88;16.95;;;14.40;99.90;;;;;;5033211;28;20549;-71
2023/07/23 00:26:17;;;;;;;18.83;16.95;;;14.50;99.90;;;;;;5041189;28;20040;-71
2023/07/23 00:28:44;;;;;;;19.52;17.42;;;14.40;99.90;;;;;;5029624;28;20136;-71
2023/07/23 00:31:11;;;;;;;18.60;16.52;;;14.20;99.90;;;;;;5050361;28;20048;-71
2023/07/23 00:33:37;;;;;;;19.10;17.05;;;14.20;99.90;;;;;;5037065;28;20125;-71
2023/07/23 00:36:04;;;;;;;19.17;17.17;;;14.20;99.90;;;;;;5035701;28;20033;-71
2023/07/23 00:38:31;;;;;;;21.70;16.92;;;14.20;99.90;;;;;;5040139;28;20057;-71
2023/07/23 00:40:58;;;;;;;17.75;15.82;;;14.20;99.90;;;;;;5043790;28;20043;-72
2023/07/23 00:43:25;;;;;;;19.00;17.05;;;14.20;99.90;;;;;;5034889;28;20086;-72
2023/07/23 00:45:51;;;;;;;21.05;16.02;;;14.20;99.90;;;;;;5031822;28;20045;-71
2023/07/23 00:48:19;;;;;;;19.10;15.95;;;14.20;99.90;;;;;;5035847;28;20042;-71
2023/07/23 00:50:45;;;;;;;17.85;15.68;;;14.20;99.90;;;;;;5028150;28;20036;-72
2023/07/23 00:53:13;;;;;;;22.50;16.05;;;14.10;99.90;;;;;;5040948;28;20060;-71
2023/07/23 00:55:39;;;;;;;18.40;15.88;;;13.90;99.90;;;;;;5055878;28;20048;-71
2023/07/23 00:58:06;;;;;;;18.73;16.73;;;13.90;99.90;;;;;;5033922;28;20103;-71
2023/07/23 01:00:33;;;;;;;16.63;15.02;;;14.00;99.90;;;;;;5050656;28;20060;-71
2023/07/23 01:03:00;;;;;;;17.80;15.85;;;13.90;99.90;;;;;;5032609;28;20132;-72
2023/07/23 01:05:28;;;;;;;20.02;15.23;;;14.10;99.90;;;;;;5048213;28;20500;-72
2023/07/23 01:07:55;;;;;;;18.00;15.27;;;14.10;99.90;;;;;;5039116;28;20052;-72
2023/07/23 01:10:22;;;;;;;21.63;16.92;;;14.00;99.90;;;;;;5034849;28;20033;-72
2023/07/23 01:12:51;;;;;;;17.98;16.05;;;14.10;99.90;;;;;;5021782;28;20076;-71
2023/07/23 01:15:18;;;;;;;17.67;15.95;;;14.10;99.90;;;;;;5036637;28;20075;-71
2023/07/23 01:17:46;;;;;;;17.58;15.75;;;14.10;99.90;;;;;;5037377;28;20040;-70
2023/07/23 01:20:13;;;;;;;17.58;14.98;;;14.10;99.90;;;;;;5051827;28;20072;-70
2023/07/23 01:22:40;;;;;;;19.48;16.48;;;14.10;99.90;;;;;;5037873;28;20044;-71
2023/07/23 01:25:07;;;;;;;20.13;16.48;;;14.20;99.90;;;;;;5037362;28;20051;-72
2023/07/23 01:27:34;;;;;;;16.27;14.57;;;14.10;99.90;;;;;;5042954;28;20076;-71
2023/07/23 01:30:01;;;;;;;16.67;14.90;;;14.10;99.90;;;;;;5038598;28;20283;-71
2023/07/23 01:32:28;;;;;;;20.48;15.65;;;14.10;99.90;;;;;;5047503;28;20049;-71
2023/07/23 01:34:57;;;;;;;18.23;14.48;;;14.20;99.90;;;;;;5039437;28;20069;-73
2023/07/23 01:37:24;;;;;;;17.13;15.32;;;14.30;99.90;;;;;;5050377;28;20051;-71
2023/07/23 01:39:51;;;;;;;18.73;14.88;;;14.20;99.90;;;;;;5023833;28;20135;-71
2023/07/23 01:42:18;;;;;;;16.40;14.65;;;14.20;99.90;;;;;;5036151;28;20503;-72
2023/07/23 01:44:46;;;;;;;17.67;14.80;;;14.00;99.90;;;;;;5030593;28;20052;-71
2023/07/23 01:47:12;;;;;;;21.60;16.27;;;14.00;99.90;;;;;;5042552;28;20053;-72
2023/07/23 01:49:39;;;;;;;20.73;14.95;;;14.00;99.90;;;;;;5022160;28;20045;-72
2023/07/23 01:52:06;;;;;;;18.48;15.05;;;14.00;99.90;;;;;;5042139;28;20675;-72
2023/07/23 01:54:33;;;;;;;17.17;15.38;;;14.00;99.90;;;;;;5035155;28;20056;-71
2023/07/23 01:57:02;;;;;;;20.92;15.85;;;14.00;99.90;;;;;;5024619;28;20590;-72
2023/07/23 01:59:29;;;;;;;20.40;15.50;;;14.10;99.90;;;;;;5040914;28;20049;-72
2023/07/23 02:01:56;;;;;;;21.08;16.05;;;14.10;99.90;;;;;;5031105;28;20048;-72
2023/07/23 02:04:23;;;;;;;22.05;16.30;;;14.20;99.90;;;;;;5057691;28;20048;-72
2023/07/23 02:06:50;;;;;;;23.20;16.55;;;14.20;99.90;;;;;;5010696;28;20072;-72
2023/07/23 02:09:42;;;;;;;22.83;16.58;;;14.00;99.90;;;;;;5052132;28;20562;-72
2023/07/23 02:12:09;;;;;;;22.45;15.93;;;14.00;99.90;;;;;;5045358;28;20087;-71
2023/07/23 02:14:36;;;;;;;22.60;14.77;;;14.10;99.90;;;;;;5034521;28;20495;-71
2023/07/23 02:17:03;;;;;;;19.83;14.85;;;14.00;99.90;;;;;;5050289;28;20049;-71
2023/07/23 02:19:30;;;;;;;17.70;14.68;;;14.00;99.90;;;;;;5042997;28;20570;-71
2023/07/23 02:21:57;;;;;;;18.00;14.15;;;14.00;99.90;;;;;;5034007;28;20049;-72
2023/07/23 02:24:24;;;;;;;18.85;14.52;;;14.00;99.90;;;;;;5049512;28;20045;-71
2023/07/23 02:26:50;;;;;;;19.33;15.63;;;14.00;99.90;;;;;;5025091;28;20087;-70
2023/07/23 02:29:17;;;;;;;16.27;14.35;;;14.10;99.90;;;;;;5036202;28;20045;-71
2023/07/23 02:31:44;;;;;;;20.08;15.00;;;14.20;99.90;;;;;;5033223;28;20060;-70
2023/07/23 02:34:11;;;;;;;19.85;15.73;;;14.20;99.90;;;;;;5032166;28;20057;-70
2023/07/23 02:36:38;;;;;;;17.95;15.45;;;14.30;99.90;;;;;;5031046;28;20044;-71
2023/07/23 02:39:04;;;;;;;21.30;16.52;;;14.30;99.90;;;;;;5029452;28;20073;-71
2023/07/23 02:41:31;;;;;;;18.08;14.50;;;14.20;99.90;;;;;;5033581;28;20042;-71
2023/07/23 02:43:58;;;;;;;17.33;15.68;;;14.30;99.90;;;;;;5017979;28;20103;-71
2023/07/23 02:46:25;;;;;;;21.08;15.90;;;14.30;99.90;;;;;;5020468;28;20431;-72
2023/07/23 02:48:52;;;;;;;23.30;15.57;;;14.30;99.90;;;;;;5033304;28;20045;-71
2023/07/23 02:51:18;;;;;;;17.50;15.50;;;14.40;99.90;;;;;;5040335;28;20108;-71
2023/07/23 02:53:45;;;;;;;20.55;15.60;;;14.40;99.90;;;;;;5030780;28;20051;-71
2023/07/23 02:56:12;;;;;;;17.42;15.70;;;14.50;99.90;;;;;;5046137;28;20053;-70
2023/07/23 02:58:39;;;;;;;17.92;16.13;;;14.40;99.90;;;;;;5037526;28;20051;-71
2023/07/23 03:01:06;;;;;;;17.35;15.65;;;14.40;99.90;;;;;;5029196;28;20071;-71
2023/07/23 03:03:33;;;;;;;22.27;16.98;;;14.30;99.90;;;;;;5032287;28;20131;-71
2023/07/23 03:05:59;;;;;;;20.23;16.75;;;14.40;99.90;;;;;;5018080;28;20048;-72
2023/07/23 03:08:27;;;;;;;18.65;16.73;;;14.30;99.90;;;;;;5039190;28;20048;-71
2023/07/23 03:10:53;;;;;;;17.80;15.93;;;14.30;99.90;;;;;;5033810;28;20045;-71
2023/07/23 03:13:20;;;;;;;18.38;16.52;;;14.30;99.90;;;;;;5036963;28;20682;-73
2023/07/23 03:15:47;;;;;;;19.17;17.20;;;14.30;99.90;;;;;;5022820;28;20052;-71
2023/07/23 03:18:13;;;;;;;19.15;17.10;;;14.40;99.90;;;;;;5027604;28;20095;-71
2023/07/23 03:20:40;;;;;;;18.60;16.73;;;14.30;99.90;;;;;;5031497;28;20052;-71
2023/07/23 03:23:07;;;;;;;19.40;17.05;;;14.40;99.90;;;;;;5029912;28;20073;-72
2023/07/23 03:25:34;;;;;;;19.60;17.50;;;14.40;99.90;;;;;;5040153;28;20110;-72
2023/07/23 03:28:02;;;;;;;19.55;17.00;;;14.40;99.90;;;;;;5034401;28;20044;-71
2023/07/23 03:30:29;;;;;;;21.02;17.65;;;14.30;99.90;;;;;;5032177;28;20069;-73
2023/07/23 03:32:56;;;;;;;18.92;16.83;;;14.30;99.90;;;;;;5031337;28;20061;-72
2023/07/23 03:35:23;;;;;;;19.90;16.70;;;14.30;99.90;;;;;;5027828;28;20043;-72
2023/07/23 03:37:49;;;;;;;18.85;16.83;;;14.20;99.90;;;;;;5036350;28;20037;-72
2023/07/23 03:40:16;;;;;;;18.65;16.98;;;14.20;99.90;;;;;;5038119;28;20688;-72
2023/07/23 03:42:43;;;;;;;20.55;18.40;;;14.30;99.90;;;;;;5039143;28;20044;-71
2023/07/23 03:45:10;;;;;;;18.50;16.65;;;14.30;99.90;;;;;;5028581;28;20053;-71
2023/07/23 03:47:37;;;;;;;19.40;17.05;;;14.20;99.90;;;;;;5036394;28;20044;-72
2023/07/23 03:50:04;;;;;;;19.35;17.55;;;14.20;99.90;;;;;;5022210;28;20045;-71
2023/07/23 03:52:31;;;;;;;19.60;17.63;;;14.20;99.90;;;;;;5043517;28;20102;-71
2023/07/23 03:54:57;;;;;;;18.73;16.83;;;14.20;99.90;;;;;;5028636;28;20048;-71
2023/07/23 03:57:24;;;;;;;18.40;16.48;;;14.20;99.90;;;;;;5030645;28;20041;-71
2023/07/23 03:59:51;;;;;;;18.73;16.83;;;14.30;99.90;;;;;;5018604;28;20056;-72
2023/07/23 04:02:17;;;;;;;18.77;16.98;;;14.30;99.90;;;;;;5051046;28;20036;-73
2023/07/23 04:04:44;;;;;;;19.75;16.90;;;14.30;99.90;;;;;;5017407;28;20061;-73
2023/07/23 04:07:11;;;;;;;18.80;16.83;;;14.20;99.90;;;;;;5024681;28;20165;-71
2023/07/23 04:09:38;;;;;;;20.48;17.48;;;14.20;99.90;;;;;;5034499;28;20041;-72
2023/07/23 04:12:09;;;;;;;18.92;17.13;;;14.30;99.90;;;;;;5017456;28;20121;-72
2023/07/23 04:14:42;;;;;;;21.08;19.17;;;14.30;99.90;;;;;;5038419;28;20135;-72
2023/07/23 04:17:12;;;;;;;20.80;18.85;;;14.30;99.90;;;;;;5033187;28;20114;-72
2023/07/23 04:19:43;;;;;;;20.80;18.90;;;14.30;99.90;;;;;;5054980;28;20060;-70
2023/07/23 04:22:10;;;;;;;20.60;18.77;;;14.30;99.90;;;;;;5025070;28;20049;-71
2023/07/23 04:24:36;;;;;;;20.45;18.50;;;14.30;99.90;;;;;;5034856;28;20872;-72
2023/07/23 04:27:04;;;;;;;20.17;18.45;;;14.30;99.90;;;;;;5028504;28;20048;-71
2023/07/23 04:29:31;;;;;;;20.63;19.02;;;14.40;99.90;;;;;;5054771;28;20494;-70
2023/07/23 04:31:57;;;;;;;21.58;19.73;;;14.50;99.90;;;;;;5025467;28;20045;-71
2023/07/23 04:34:24;;;;;;;21.88;20.02;;;14.60;99.90;;;;;;5035081;28;20090;-72
2023/07/23 04:36:53;;;;;;;22.83;20.67;;;14.60;99.90;;;;;;5029722;28;20047;-71
2023/07/23 04:39:20;;;;;;;22.33;20.45;;;14.70;99.90;;;;;;5033547;28;20041;-71
2023/07/23 04:41:47;;;;;;;21.45;19.83;;;14.70;99.90;;;;;;5035878;28;20043;-72
2023/07/23 04:44:14;;;;;;;22.23;20.58;;;14.70;99.90;;;;;;5035640;28;20057;-72
2023/07/23 04:46:41;;;;;;;23.02;21.15;;;14.70;99.90;;;;;;5033215;28;20053;-71
2023/07/23 04:49:07;;;;;;;22.55;20.73;;;14.70;99.90;;;;;;5030281;28;20038;-71
2023/07/23 04:51:35;;;;;;;22.92;20.77;;;14.70;99.90;;;;;;5031703;28;20041;-72
2023/07/23 04:54:02;;;;;;;22.70;20.88;;;14.70;99.90;;;;;;5036598;28;20584;-72
2023/07/23 04:56:28;;;;;;;24.17;22.40;;;14.70;99.90;;;;;;5049194;28;20585;-72
2023/07/23 04:58:56;;;;;;;23.83;21.50;;;14.70;99.90;;;;;;5039761;28;20040;-72
2023/07/23 05:01:23;;;;;;;22.58;20.98;;;14.80;99.90;;;;;;5033481;28;20045;-72
2023/07/23 05:03:50;;;;;;;23.88;22.02;;;14.90;99.90;;;;;;5035255;28;20075;-72
2023/07/23 05:06:17;;;;;;;24.50;22.42;;;14.90;99.90;;;;;;5033706;28;20050;-72
2023/07/23 05:08:44;;;;;;;23.90;21.95;;;15.00;99.90;;;;;;5033384;28;20047;-71
2023/07/23 05:11:11;;;;;;;24.50;22.33;;;15.10;99.90;;;;;;5030349;28;20169;-71
2023/07/23 05:13:38;;;;;;;23.70;21.90;;;15.20;99.90;;;;;;5042729;28;20057;-72
2023/07/23 05:16:05;;;;;;;25.23;23.42;;;15.30;99.90;;;;;;5031142;28;20048;-74
2023/07/23 05:18:33;;;;;;;25.67;23.73;;;15.40;99.90;;;;;;5041794;28;20047;-71
2023/07/23 05:21:05;;;;;;;24.98;23.08;;;15.50;99.90;;;;;;5022984;28;20113;-72
2023/07/23 05:23:31;;;;;;;25.30;23.33;;;15.60;99.90;;;;;;5033633;28;20478;-72
2023/07/23 05:25:58;;;;;;;25.85;23.85;;;15.70;99.90;;;;;;5032492;28;20060;-72
2023/07/23 05:28:25;;;;;;;26.13;24.20;;;15.80;99.90;;;;;;5034504;28;20044;-73
2023/07/23 05:30:59;;;;;;;27.80;25.83;;;15.80;99.90;;;;;;5033563;28;20040;-72
2023/07/23 05:33:26;;;;;;;26.75;24.95;;;15.80;99.90;;;;;;5042248;28;20048;-73
2023/07/23 05:35:53;;;;;;;27.40;25.40;;;15.90;99.90;;;;;;5026697;28;20037;-72
2023/07/23 05:38:19;;;;;;;26.45;24.55;;;15.90;99.90;;;;;;5034141;28;20061;-73
2023/07/23 05:40:54;;;;;;;26.02;24.23;;;16.00;99.90;;;;;;5025032;28;20036;-72
2023/07/23 05:43:21;;;;;;;26.63;24.58;;;16.10;99.90;;;;;;5032367;28;20536;-72
2023/07/23 05:45:48;;;;;;;26.95;24.95;;;16.10;99.90;;;;;;5034982;28;20568;-72
2023/07/23 05:48:16;;;;;;;26.58;24.50;;;16.30;99.90;;;;;;5023291;28;20048;-72
2023/07/23 05:50:42;;;;;;;25.77;23.98;;;16.30;99.90;;;;;;5035618;28;20045;-73
2023/07/23 05:53:10;;;;;;;26.67;24.73;;;16.40;99.90;;;;;;5031330;28;20037;-73
2023/07/23 05:55:37;;;;;;;25.42;23.63;;;16.40;99.90;;;;;;5029719;28;20046;-71
2023/07/23 05:58:04;;;;;;;25.60;23.60;;;16.50;99.90;;;;;;5030148;28;20037;-73
2023/07/23 06:00:30;;;;;;;28.02;25.95;;;16.60;99.90;;;;;;5030630;28;20080;-73
2023/07/23 06:02:57;;;;;;;26.77;24.73;;;16.60;99.90;;;;;;5030175;28;20049;-72
2023/07/23 06:05:24;;;;;;;28.73;25.92;;;16.70;99.90;;;;;;5029964;28;20087;-73
2023/07/23 06:07:51;;;;;;;28.13;25.83;;;16.70;99.90;;;;;;5028868;28;20045;-73
2023/07/23 06:10:17;;;;;;;28.08;25.98;;;16.80;99.90;;;;;;5025938;28;20075;-72
2023/07/23 06:12:44;;;;;;;29.15;26.60;;;16.90;99.90;;;;;;5034196;28;20696;-73
2023/07/23 06:15:11;;;;;;;28.67;26.58;;;17.00;99.90;;;;;;5020320;28;20727;-73
2023/07/23 06:17:37;;;;;;;26.23;24.30;;;17.10;99.90;;;;;;5036949;28;20048;-72
2023/07/23 06:20:05;;;;;;;27.55;25.45;;;17.10;99.90;;;;;;5027335;28;20526;-73
2023/07/23 06:22:32;;;;;;;28.02;25.83;;;17.20;99.90;;;;;;5030998;28;20104;-73
2023/07/23 06:24:58;;;;;;;27.90;25.38;;;17.40;99.90;;;;;;5032211;28;20111;-73
2023/07/23 06:27:25;;;;;;;27.45;25.50;;;17.60;99.90;;;;;;5025720;28;20068;-73
2023/07/23 06:29:52;;;;;;;27.80;25.70;;;17.70;99.90;;;;;;5024445;28;20033;-73
2023/07/23 06:32:19;;;;;;;26.17;24.17;;;17.80;99.90;;;;;;5022199;28;20122;-73
2023/07/23 06:34:46;;;;;;;26.63;24.50;;;17.90;99.90;;;;;;5016236;28;20051;-73
2023/07/23 06:37:12;;;;;;;26.42;24.38;;;18.10;99.90;;;;;;5038572;28;20205;-74
2023/07/23 06:39:39;;;;;;;26.63;24.80;;;18.20;99.90;;;;;;5057105;28;20079;-73
2023/07/23 06:42:06;;;;;;;27.58;25.60;;;18.20;99.90;;;;;;5029839;28;20041;-73
2023/07/23 06:44:33;;;;;;;27.33;25.42;;;18.20;99.90;;;;;;5031584;28;20049;-73
2023/07/23 06:46:59;;;;;;;26.60;24.67;;;18.30;99.90;;;;;;5026816;28;20070;-72
2023/07/23 06:49:28;;;;;;;27.77;25.60;;;18.40;99.90;;;;;;5026298;28;20464;-73
2023/07/23 06:51:56;;;;;;;28.10;26.02;;;18.40;99.90;;;;;;5028523;28;20048;-73
2023/07/23 06:54:23;;;;;;;27.00;25.13;;;18.40;99.90;;;;;;5034230;28;20036;-73
2023/07/23 06:56:52;;;;;;;26.63;24.73;;;18.50;99.90;;;;;;5031582;28;20598;-73
2023/07/23 06:59:19;;;;;;;24.45;22.67;;;18.60;99.90;;;;;;5029475;28;20049;-72
2023/07/23 07:01:46;;;;;;;24.38;22.67;;;18.80;99.90;;;;;;5034031;28;20047;-72
2023/07/23 07:04:13;;;;;;;24.38;22.77;;;19.00;99.90;;;;;;5025670;28;20544;-74
2023/07/23 07:06:40;;;;;;;26.20;24.20;;;19.20;99.90;;;;;;5032874;28;20040;-73
2023/07/23 07:09:06;;;;;;;25.42;23.58;;;19.40;99.90;;;;;;5030276;28;20256;-73
2023/07/23 07:11:34;;;;;;;25.00;23.30;;;19.50;99.90;;;;;;5028154;28;20053;-73
2023/07/23 07:14:01;;;;;;;26.30;24.33;;;19.60;99.90;;;;;;5032363;28;20045;-73
2023/07/23 07:16:27;;;;;;;25.33;23.60;;;19.70;99.90;;;;;;5034207;28;20044;-73
2023/07/23 07:18:54;;;;;;;25.77;23.98;;;19.70;99.90;;;;;;5037785;28;20055;-73
2023/07/23 07:21:21;;;;;;;28.15;26.15;;;19.70;99.90;;;;;;5030499;28;20049;-75
2023/07/23 07:23:48;;;;;;;27.80;25.80;;;19.80;99.90;;;;;;5033682;28;20045;-75
2023/07/23 07:26:15;;;;;;;27.58;25.42;;;19.80;99.90;;;;;;5018936;28;20042;-75
2023/07/23 07:28:41;;;;;;;27.52;25.52;;;19.90;99.90;;;;;;5038092;28;20707;-74
2023/07/23 07:31:10;;;;;;;29.30;26.50;;;20.10;99.90;;;;;;5030691;28;20420;-73
2023/07/23 07:33:37;;;;;;;28.98;26.67;;;20.20;99.90;;;;;;5028413;28;20800;-72
2023/07/23 07:36:04;;;;;;;27.80;25.40;;;20.30;99.90;;;;;;5044433;28;20051;-72
2023/07/23 07:38:30;;;;;;;27.75;25.85;;;20.40;99.90;;;;;;5046277;28;20932;-73
2023/07/23 07:40:57;;;;;;;27.73;25.83;;;20.50;99.90;;;;;;5029038;28;20052;-72
2023/07/23 07:43:25;;;;;;;26.58;24.75;;;20.50;99.90;;;;;;5033183;28;20045;-73
2023/07/23 07:46:00;;;;;;;27.65;25.80;;;20.50;99.90;;;;;;5028980;28;20163;-72
2023/07/23 07:48:29;;;;;;;27.60;25.70;;;20.50;99.90;;;;;;5038625;28;20045;-72
2023/07/23 07:51:05;;;;;;;28.05;25.85;;;20.60;99.90;;;;;;5029769;28;20534;-72
2023/07/23 07:53:34;;;;;;;26.63;24.42;;;20.50;99.90;;;;;;5021546;28;20820;-72
2023/07/23 07:56:01;;;;;;;26.60;24.80;;;20.50;99.90;;;;;;5028944;28;20053;-73
2023/07/23 07:58:28;;;;;;;26.48;24.35;;;20.50;99.90;;;;;;5027372;28;20126;-73
2023/07/23 08:00:57;;;;;;;26.20;24.30;;;20.60;99.90;;;;;;5031295;28;20130;-72
2023/07/23 08:03:25;;;;;;;26.70;24.73;;;20.70;99.90;;;;;;5027265;28;20056;-74
2023/07/23 08:05:55;;;;;;;26.80;24.83;;;20.70;99.90;;;;;;5027708;28;20614;-72
2023/07/23 08:08:25;;;;;;;26.52;24.63;;;20.60;99.90;;;;;;5025407;28;20041;-73
2023/07/23 08:11:00;;;;;;;26.42;24.40;;;20.60;99.90;;;;;;5029544;28;20037;-72
2023/07/23 08:13:28;;;;;;;26.60;24.70;;;20.60;99.90;;;;;;5025801;28;20045;-72
2023/07/23 08:15:55;;;;;;;27.15;25.10;;;20.60;99.90;;;;;;5025103;28;20041;-72
2023/07/23 08:18:23;;;;;;;26.23;24.52;;;20.60;99.90;;;;;;5013871;28;20041;-72
2023/07/23 08:20:51;;;;;;;28.27;25.60;;;20.60;99.90;;;;;;5032620;28;20608;-74
2023/07/23 08:23:18;;;;;;;27.80;26.00;;;20.60;99.90;;;;;;5022066;28;20060;-74
2023/07/23 08:25:52;;;;;;;26.92;25.23;;;20.70;99.90;;;;;;5030113;28;20050;-74
2023/07/23 08:28:22;;;;;;;28.50;26.60;;;20.80;99.90;;;;;;5025626;28;20690;-72
2023/07/23 08:30:50;;;;;;;28.52;26.52;;;20.80;99.90;;;;;;5033030;28;20049;-72
2023/07/23 08:33:18;;;;;;;26.88;25.00;;;20.90;99.90;;;;;;5027908;28;20045;-74
2023/07/23 08:35:45;;;;;;;27.55;25.48;;;21.00;99.90;;;;;;5023880;28;20049;-74
2023/07/23 08:38:12;;;;;;;27.50;25.42;;;20.90;99.90;;;;;;5025198;28;20052;-73
2023/07/23 08:40:44;;;;;;;27.40;25.60;;;20.70;99.90;;;;;;5035000;28;21040;-73
2023/07/23 08:43:36;;;;;;;27.20;25.27;;;20.50;99.90;;;;;;5034056;28;20046;-73
2023/07/23 08:46:23;;;;;;;27.85;26.00;;;20.50;99.90;;;;;;5026989;28;20527;-73
2023/07/23 08:48:58;;;;;;;27.02;25.15;;;20.30;99.90;;;;;;5030244;28;20083;-73
2023/07/23 08:51:26;;;;;;;27.35;25.23;;;20.30;99.90;;;;;;5028804;28;20037;-73
2023/07/23 08:53:55;;;;;;;27.40;25.55;;;20.40;99.90;;;;;;5033969;28;20071;-73
2023/07/23 08:56:22;;;;;;;27.30;25.20;;;20.50;99.90;;;;;;5031288;28;20049;-73
2023/07/23 08:58:50;;;;;;;26.50;24.60;;;20.50;99.90;;;;;;5029214;28;20041;-73
2023/07/23 09:01:17;;;;;;;27.27;25.23;;;20.70;99.90;;;;;;5029375;28;20036;-72
2023/07/23 09:03:44;;;;;;;26.77;24.85;;;20.70;99.90;;;;;;5047852;28;20041;-72
2023/07/23 09:06:11;;;;;;;26.55;24.75;;;20.90;99.90;;;;;;5025598;28;20121;-72
2023/07/23 09:08:38;;;;;;;26.70;24.90;;;21.00;99.90;;;;;;5031473;28;20049;-74
2023/07/23 09:11:06;;;;;;;26.75;24.83;;;21.20;99.90;;;;;;5033641;28;20056;-72
2023/07/23 09:13:35;;;;;;;27.10;25.27;;;21.20;99.90;;;;;;5034194;28;20518;-71
2023/07/23 09:16:03;;;;;;;27.83;25.83;;;21.20;99.90;;;;;;5037172;28;20507;-72
2023/07/23 09:18:30;;;;;;;27.23;25.25;;;21.10;99.90;;;;;;5021426;28;20052;-72
2023/07/23 09:20:57;;;;;;;26.30;24.13;;;21.30;99.90;;;;;;5028819;28;20037;-71
2023/07/23 09:23:28;;;;;;;26.27;24.27;;;21.30;99.90;;;;;;5033967;28;21281;-74
2023/07/23 09:25:59;;;;;;;26.25;24.35;;;21.10;99.90;;;;;;5031976;28;20040;-72
2023/07/23 09:28:26;;;;;;;26.77;24.90;;;21.10;99.90;;;;;;5039060;28;20090;-72
2023/07/23 09:30:54;;;;;;;25.77;23.88;;;21.10;99.90;;;;;;5033971;28;20064;-72
2023/07/23 09:33:28;;;;;;;27.23;24.90;;;21.10;99.90;;;;;;5019401;28;20037;-72
2023/07/23 09:36:00;;;;;;;26.23;24.33;;;21.00;99.90;;;;;;5048163;28;20053;-72
2023/07/23 09:38:28;;;;;;;26.00;23.73;;;21.00;99.90;;;;;;5053168;28;20042;-72
2023/07/23 09:40:55;;;;;;;26.73;24.80;;;20.80;99.90;;;;;;5051659;28;20056;-72
2023/07/23 09:43:23;;;;;;;26.10;24.13;;;20.80;99.90;;;;;;5050703;28;20041;-70
2023/07/23 09:45:52;;;;;;;25.42;23.27;;;20.70;99.90;;;;;;5045291;28;20048;-71
2023/07/23 09:48:20;;;;;;;27.33;25.42;;;20.70;99.90;;;;;;5045152;28;20045;-74
2023/07/23 09:50:51;;;;;;;27.00;25.02;;;20.60;99.90;;;;;;5032836;28;20037;-74
2023/07/23 09:53:17;;;;;;;27.33;25.23;;;20.50;99.90;;;;;;5034334;28;20129;-72
2023/07/23 09:55:45;;;;;;;26.83;24.92;;;20.40;99.90;;;;;;5040429;28;20033;-74
2023/07/23 09:58:14;;;;;;;27.15;25.25;;;20.40;99.90;;;;;;5031466;28;20132;-74
2023/07/23 10:00:42;;;;;;;27.33;25.42;;;20.30;99.90;;;;;;5030779;28;20036;-74
2023/07/23 10:03:10;;;;;;;27.33;25.35;;;20.20;99.90;;;;;;5025074;28;20198;-71
2023/07/23 10:05:37;;;;;;;27.80;25.70;;;20.20;99.90;;;;;;5026532;28;20132;-73
2023/07/23 10:08:06;;;;;;;27.40;25.35;;;20.20;99.90;;;;;;5029123;28;20358;-73
2023/07/23 10:10:32;;;;;;;27.90;25.67;;;20.10;99.90;;;;;;5021256;28;20041;-73
2023/07/23 10:12:59;;;;;;;27.52;25.45;;;20.20;99.90;;;;;;5033810;28;20140;-73
2023/07/23 10:15:28;;;;;;;27.25;25.33;;;20.10;99.90;;;;;;5025661;28;20059;-72
2023/07/23 10:18:00;;;;;;;27.08;25.17;;;20.10;99.90;;;;;;5044557;28;20099;-73
2023/07/23 10:20:29;;;;;;;27.20;25.27;;;20.00;99.90;;;;;;5022973;28;20061;-73
2023/07/23 10:22:57;;;;;;;26.90;24.90;;;19.90;99.90;;;;;;5022246;28;20056;-73
2023/07/23 10:25:30;;;;;;;27.30;25.10;;;19.80;99.90;;;;;;5020741;28;20068;-73
2023/07/23 10:28:07;;;;;;;26.27;24.08;;;19.70;99.90;;;;;;5049248;28;20044;-72
2023/07/23 10:30:38;;;;;;;25.88;23.83;;;19.60;99.90;;;;;;5024184;28;20559;-73
2023/07/23 10:33:11;;;;;;;26.73;24.60;;;19.50;99.90;;;;;;5026269;28;20049;-73
2023/07/23 10:35:54;;;;;;;26.20;24.20;;;19.50;99.90;;;;;;5028534;28;20049;-73
2023/07/23 10:38:23;;;;;;;25.90;23.80;;;19.50;99.90;;;;;;5040157;28;20470;-73
2023/07/23 10:40:51;;;;;;;25.83;23.73;;;19.30;99.90;;;;;;5032208;28;20053;-73
2023/07/23 10:43:18;;;;;;;26.05;24.15;;;19.40;99.90;;;;;;5033096;28;20049;-73
2023/07/23 10:45:49;;;;;;;25.05;23.23;;;19.10;99.90;;;;;;5029133;28;20094;-73
2023/07/23 10:48:19;;;;;;;25.35;23.20;;;18.90;99.90;;;;;;5024209;28;20132;-73
2023/07/23 10:51:01;;;;;;;24.85;23.02;;;18.60;99.90;;;;;;5024271;28;20033;-72
2023/07/23 10:53:31;;;;;;;22.45;20.75;;;18.50;99.90;;;;;;5024445;28;20040;-73
2023/07/23 10:56:02;;;;;;;25.45;23.50;;;18.40;99.90;;;;;;5031593;28;20040;-72
2023/07/23 10:58:29;;;;;;;26.60;24.60;;;18.70;99.90;;;;;;5032584;28;20133;-72
2023/07/23 11:00:58;;;;;;;25.40;23.70;;;18.80;99.90;;;;;;5026096;28;20038;-73
2023/07/23 11:03:26;;;;;;;26.83;24.83;;;18.90;99.90;;;;;;5042384;28;20553;-72
2023/07/23 11:05:53;;;;;;;25.45;23.55;;;18.90;99.90;;;;;;5046167;28;20134;-73
2023/07/23 11:08:27;;;;;;;25.95;24.15;;;19.00;99.90;;;;;;5023371;28;20048;-72
2023/07/23 11:10:59;;;;;;;26.50;24.55;;;18.90;99.90;;;;;;5032444;28;20044;-72
2023/07/23 11:13:37;;;;;;;26.13;24.33;;;19.00;99.90;;;;;;5021748;28;20049;-73
2023/07/23 11:16:04;;;;;;;26.90;25.00;;;19.10;99.90;;;;;;5032090;28;20041;-72
2023/07/23 11:18:32;;;;;;;26.98;24.98;;;19.30;99.90;;;;;;5028107;28;22876;-73
2023/07/23 11:21:05;;;;;;;24.92;23.23;;;19.50;99.90;;;;;;5017087;28;20034;-72
2023/07/23 11:23:33;;;;;;;26.23;24.33;;;19.40;99.90;;;;;;5019762;28;20642;-72
2023/07/23 11:26:00;;;;;;;27.35;25.45;;;19.40;99.90;;;;;;5027435;28;20029;-72
2023/07/23 11:28:27;;;;;;;25.88;24.08;;;19.30;99.90;;;;;;5021878;28;20045;-72
2023/07/23 11:30:55;;;;;;;25.73;23.92;;;19.50;99.90;;;;;;5025937;28;20087;-72
2023/07/23 11:33:26;;;;;;;25.60;23.73;;;19.60;99.90;;;;;;5024278;28;20041;-72
2023/07/23 11:35:53;;;;;;;25.08;23.17;;;19.70;99.90;;;;;;5027856;28;20103;-73
2023/07/23 11:38:20;;;;;;;26.00;23.95;;;19.70;99.90;;;;;;5026746;28;20079;-73
2023/07/23 11:40:52;;;;;;;26.08;23.98;;;19.60;99.90;;;;;;5037645;28;20596;-72
2023/07/23 11:43:19;;;;;;;25.83;23.92;;;19.70;99.90;;;;;;5026084;28;20051;-73
2023/07/23 11:45:49;;;;;;;25.65;23.75;;;19.70;99.90;;;;;;5024926;28;20052;-73
2023/07/23 11:48:18;;;;;;;25.48;23.58;;;19.60;99.90;;;;;;5023830;28;20049;-72
2023/07/23 11:50:46;;;;;;;26.27;24.52;;;19.40;99.90;;;;;;5028134;28;20069;-72
2023/07/23 11:53:14;;;;;;;27.73;25.73;;;19.40;99.90;;;;;;5025312;28;20060;-72
2023/07/23 11:55:43;;;;;;;26.85;24.98;;;19.20;99.90;;;;;;5024297;28;20037;-73
2023/07/23 11:58:16;;;;;;;25.70;23.92;;;19.00;99.90;;;;;;5025649;28;20803;-73
2023/07/23 12:00:48;;;;;;;26.23;24.42;;;19.00;99.90;;;;;;5024461;28;20049;-73
2023/07/23 12:03:16;;;;;;;26.90;25.00;;;19.10;99.90;;;;;;5027479;28;20043;-73
2023/07/23 12:05:43;;;;;;;25.85;24.15;;;19.30;99.90;;;;;;5015614;28;22199;-73
2023/07/23 12:08:11;;;;;;;25.92;24.13;;;19.30;99.90;;;;;;5028211;28;20580;-73
2023/07/23 12:10:38;;;;;;;26.08;24.38;;;19.30;99.90;;;;;;5022462;28;20045;-73
2023/07/23 12:13:09;;;;;;;26.23;24.52;;;19.40;99.90;;;;;;5022641;28;20073;-72
2023/07/23 12:15:38;;;;;;;25.48;23.83;;;19.40;99.90;;;;;;5016208;28;20581;-72
2023/07/23 12:18:09;;;;;;;25.63;24.02;;;19.60;99.90;;;;;;5027701;28;20045;-72
2023/07/23 12:20:37;;;;;;;25.38;23.48;;;19.50;99.90;;;;;;5023968;28;20029;-72
2023/07/23 12:23:05;;;;;;;25.52;23.70;;;19.60;99.90;;;;;;5030465;28;20063;-72
2023/07/23 12:25:32;;;;;;;25.70;23.88;;;19.60;99.90;;;;;;5022892;28;20531;-72
2023/07/23 12:27:59;;;;;;;26.23;24.52;;;19.70;99.90;;;;;;5024737;28;20057;-72
2023/07/23 12:30:25;;;;;;;25.00;23.35;;;19.60;99.90;;;;;;5024775;28;20055;-72
2023/07/23 12:32:52;;;;;;;24.50;22.80;;;19.60;99.90;;;;;;5035815;28;20028;-74